首页
METAR-TAF:

METAR-TAF

机场 :

瓜达尔, 巴基斯坦

纬度: 25-13-59N, 经度: 062-19-46E, 海拔: 29米

METAR: 丢失

时间: 14:30 (09:30 UTC)

预报

该预报发布于6小时和0分钟前的03:30 UTC
预报有效从01日的 06点(UTC)到 02日的 06点(UTC)
风速8节,风向西转西南,有时为18节阵风
能見度: 6000
成为
从 01日的 20点(UTC)到 01日的 22点(UTC)
风速3节,风向多变
能見度: 3000

TAF: OPGD 010330Z 0106/0206 24008G18KT 6000 NSC BECMG 0120/0122 VRB03KT 3000 HZ NSC

超过4000个机场的气象观测和天气预报(METAR&TAF报告)。

可查询的气象台以黄色和红色小点在地图上表示。

将鼠标移到小点上方,可查看气象台名称。

然后点击查看天气观测和预报。

如需切换地图:点击带黑十字的绿色按钮放大地图;点击带横线的绿色按钮缩小地图;或者点击绿色箭头查看邻近地区的地图。


METAR-TAF: